createdAt,value
2019-03-05T00:00:57.064Z,6.16
2019-03-05T00:03:27.581Z,6.21
2019-03-05T00:05:57.986Z,6.27
2019-03-05T00:08:28.450Z,6.24
2019-03-05T00:10:58.954Z,6.25
2019-03-05T00:13:29.359Z,6.05
2019-03-05T00:15:59.916Z,6.16
2019-03-05T00:18:30.326Z,6.18
2019-03-05T00:21:00.787Z,6.19
2019-03-05T00:24:07.901Z,6.20
2019-03-05T00:26:38.427Z,6.22
2019-03-05T00:29:58.461Z,6.23
2019-03-05T00:32:28.985Z,6.20
2019-03-05T00:35:33.233Z,6.19
2019-03-05T00:38:21.194Z,6.15
2019-03-05T00:41:19.802Z,6.07
2019-03-05T00:44:27.802Z,6.03
2019-03-05T00:47:42.316Z,5.98
2019-03-05T00:50:46.115Z,5.94
2019-03-05T00:53:52.657Z,5.92
2019-03-05T00:56:42.449Z,5.89
2019-03-05T00:59:56.724Z,5.86
2019-03-05T01:02:38.146Z,5.82
2019-03-05T01:05:47.670Z,5.78
2019-03-05T01:08:19.731Z,5.75
2019-03-05T01:10:50.304Z,5.67
2019-03-05T01:13:20.944Z,5.64
2019-03-05T01:15:51.622Z,5.59
2019-03-05T01:18:22.070Z,5.54
2019-03-05T01:20:52.745Z,5.54
2019-03-05T01:23:23.249Z,5.44
2019-03-05T01:25:53.748Z,5.49
2019-03-05T01:28:24.416Z,5.44
2019-03-05T01:31:19.668Z,5.41
2019-03-05T01:33:58.855Z,5.43
2019-03-05T01:36:31.736Z,5.42
2019-03-05T01:39:25.703Z,5.42
2019-03-05T01:41:56.304Z,5.42
2019-03-05T01:44:26.824Z,5.39
2019-03-05T01:46:57.283Z,5.37
2019-03-05T01:49:27.744Z,5.32
2019-03-05T01:51:58.333Z,4.86
2019-03-05T01:54:28.788Z,5.02
2019-03-05T01:56:59.286Z,5.16
2019-03-05T01:59:29.753Z,5.20
2019-03-05T02:02:00.255Z,5.21
2019-03-05T02:04:31.111Z,5.17
2019-03-05T02:07:01.585Z,5.21
2019-03-05T02:09:32.037Z,5.16
2019-03-05T02:12:02.644Z,5.15
2019-03-05T02:14:33.241Z,5.15
2019-03-05T02:17:03.837Z,5.12
2019-03-05T02:19:45.739Z,5.01
2019-03-05T02:22:28.722Z,5.02
2019-03-05T02:25:15.131Z,4.97
2019-03-05T02:28:10.456Z,4.91
2019-03-05T02:31:11.556Z,4.83
2019-03-05T02:34:10.404Z,4.75
2019-03-05T02:37:24.608Z,4.70
2019-03-05T02:40:19.332Z,4.64
2019-03-05T02:43:15.375Z,4.58
2019-03-05T02:46:05.527Z,4.53
2019-03-05T02:49:31.667Z,4.46
2019-03-05T02:52:38.603Z,4.43
2019-03-05T02:55:45.152Z,4.38
2019-03-05T02:58:13.640Z,4.33
2019-03-05T03:01:18.219Z,4.30
2019-03-05T03:03:52.006Z,4.27
2019-03-05T03:06:27.816Z,4.23
2019-03-05T03:09:42.952Z,4.20
2019-03-05T03:12:13.610Z,4.18
2019-03-05T03:14:44.069Z,4.16
2019-03-05T03:17:14.761Z,4.14
2019-03-05T03:19:45.461Z,4.11
2019-03-05T03:22:15.921Z,4.06
2019-03-05T03:24:46.394Z,4.03
2019-03-05T03:27:16.982Z,4.04
2019-03-05T03:29:47.445Z,4.02
2019-03-05T03:32:17.959Z,3.98
2019-03-05T03:34:48.496Z,4.00
2019-03-05T03:37:18.963Z,3.99
2019-03-05T03:39:49.450Z,3.98
2019-03-05T03:42:19.923Z,3.98
2019-03-05T03:44:50.407Z,3.97
2019-03-05T03:47:20.865Z,3.92
2019-03-05T03:49:51.351Z,3.91
2019-03-05T03:52:21.856Z,3.90
2019-03-05T03:54:52.458Z,3.89
2019-03-05T03:57:22.916Z,3.86
2019-03-05T03:59:53.520Z,3.72
2019-03-05T04:02:23.983Z,3.72
2019-03-05T04:04:54.589Z,3.76
2019-03-05T04:07:25.064Z,3.75
2019-03-05T04:09:55.523Z,3.74
2019-03-05T04:12:26.152Z,3.69
2019-03-05T04:14:56.626Z,3.71
2019-03-05T04:17:27.120Z,3.63
2019-03-05T04:19:57.562Z,3.63
2019-03-05T04:22:28.329Z,3.54
2019-03-05T04:24:58.741Z,3.57
2019-03-05T04:27:29.229Z,3.57
2019-03-05T04:29:59.704Z,3.60
2019-03-05T04:32:30.201Z,3.61
2019-03-05T04:35:00.702Z,3.60
2019-03-05T04:37:31.196Z,3.59
2019-03-05T04:40:03.264Z,3.57
2019-03-05T04:42:34.007Z,3.58
2019-03-05T04:45:16.901Z,3.58
2019-03-05T04:47:47.407Z,3.57
2019-03-05T04:50:28.285Z,3.56
2019-03-05T04:52:58.810Z,3.33
2019-03-05T04:55:29.281Z,3.33
2019-03-05T04:57:59.852Z,3.32
2019-03-05T05:00:30.360Z,3.38
2019-03-05T05:03:00.967Z,3.42
2019-03-05T05:05:31.426Z,3.43
2019-03-05T05:08:01.940Z,3.40
2019-03-05T05:10:32.444Z,3.45
2019-03-05T05:13:03.017Z,3.56
2019-03-05T05:15:34.230Z,3.56
2019-03-05T05:18:05.093Z,3.60
2019-03-05T05:20:35.552Z,3.69
2019-03-05T05:23:06.153Z,3.75
2019-03-05T05:25:36.613Z,3.91
2019-03-05T05:28:07.074Z,4.01
2019-03-05T05:30:39.038Z,4.17
2019-03-05T05:33:09.627Z,4.24
2019-03-05T05:35:40.219Z,4.39
2019-03-05T05:38:10.679Z,4.37
2019-03-05T05:40:43.056Z,4.55
2019-03-05T05:43:25.120Z,4.72
2019-03-05T05:45:55.821Z,5.01
2019-03-05T05:48:26.322Z,5.01
2019-03-05T05:50:56.790Z,5.13
2019-03-05T05:53:27.318Z,5.33
2019-03-05T05:55:57.924Z,5.47
2019-03-05T05:58:28.405Z,5.57
2019-03-05T06:01:00.892Z,5.70
2019-03-05T06:03:31.411Z,5.81
2019-03-05T06:06:02.011Z,5.83
2019-03-05T06:08:32.490Z,5.94
2019-03-05T06:11:02.977Z,6.01
2019-03-05T06:13:33.511Z,6.07
2019-03-05T06:16:04.027Z,6.31
2019-03-05T06:18:34.548Z,6.43
2019-03-05T06:21:05.033Z,6.69
2019-03-05T06:23:35.557Z,6.88
2019-03-05T06:26:08.758Z,7.02
2019-03-05T06:28:38.357Z,7.11
2019-03-05T06:31:08.827Z,7.23
2019-03-05T06:33:39.339Z,7.33
2019-03-05T06:36:10.330Z,7.53
2019-03-05T06:38:41.748Z,7.59
2019-03-05T06:41:12.210Z,7.76
2019-03-05T06:43:42.779Z,7.95
2019-03-05T06:46:13.329Z,8.07
2019-03-05T06:49:05.842Z,8.07
2019-03-05T06:51:50.600Z,8.26
2019-03-05T06:54:19.253Z,8.39
2019-03-05T06:56:49.722Z,8.57
2019-03-05T06:59:20.245Z,8.85
2019-03-05T07:01:50.827Z,9.10
2019-03-05T07:04:21.322Z,9.16
2019-03-05T07:06:59.276Z,9.25
2019-03-05T07:09:39.646Z,9.41
2019-03-05T07:12:38.902Z,9.54
2019-03-05T07:15:32.385Z,9.74
2019-03-05T07:18:07.794Z,9.91
2019-03-05T07:21:13.478Z,10.14
2019-03-05T07:24:15.100Z,10.32
2019-03-05T07:26:45.662Z,10.40
2019-03-05T07:29:18.026Z,10.68
2019-03-05T07:31:48.354Z,10.76
2019-03-05T07:34:25.319Z,10.91
2019-03-05T07:36:55.943Z,11.03
2019-03-05T07:39:26.618Z,11.21
2019-03-05T07:41:57.136Z,11.22
2019-03-05T07:44:27.608Z,11.24
2019-03-05T07:46:58.096Z,11.03
2019-03-05T07:49:28.656Z,11.19
2019-03-05T07:51:59.162Z,11.30
2019-03-05T07:54:29.634Z,11.36
2019-03-05T07:57:00.182Z,11.56
2019-03-05T07:59:30.697Z,11.63
2019-03-05T08:02:01.185Z,11.63
2019-03-05T08:04:31.697Z,11.57
2019-03-05T08:07:02.201Z,11.76
2019-03-05T08:09:37.127Z,11.28
2019-03-05T08:12:21.348Z,12.04
2019-03-05T08:15:10.130Z,12.25
2019-03-05T08:17:40.636Z,12.39
2019-03-05T08:20:11.999Z,12.42
2019-03-05T08:22:42.875Z,12.45
2019-03-05T08:25:15.530Z,12.62
2019-03-05T08:27:46.051Z,12.64
2019-03-05T08:30:16.865Z,12.60
2019-03-05T08:32:47.327Z,12.75
2019-03-05T08:35:17.989Z,12.88
2019-03-05T08:37:48.434Z,12.99
2019-03-05T08:40:19.161Z,13.15
2019-03-05T08:42:49.681Z,13.12
2019-03-05T08:45:28.802Z,13.30
2019-03-05T08:47:52.579Z,13.43
2019-03-05T08:50:23.095Z,13.59
2019-03-05T08:52:53.609Z,13.72
2019-03-05T08:55:24.113Z,13.75
2019-03-05T08:57:54.593Z,13.83
2019-03-05T09:00:25.093Z,13.92
2019-03-05T09:02:55.807Z,14.01
2019-03-05T09:05:26.306Z,14.05
2019-03-05T09:07:56.838Z,13.99
2019-03-05T09:10:27.641Z,14.16
2019-03-05T09:12:58.151Z,14.21
2019-03-05T09:15:28.706Z,14.38
2019-03-05T09:17:59.282Z,14.55
2019-03-05T09:20:30.102Z,14.63
2019-03-05T09:23:00.564Z,14.78
2019-03-05T09:25:31.143Z,14.84
2019-03-05T09:28:01.884Z,15.00
2019-03-05T09:30:32.448Z,15.11
2019-03-05T09:33:02.963Z,15.05
2019-03-05T09:35:33.571Z,15.24
2019-03-05T09:38:04.227Z,15.41
2019-03-05T09:40:34.837Z,15.58
2019-03-05T09:43:05.430Z,15.71
2019-03-05T09:45:35.930Z,15.86
2019-03-05T09:48:06.539Z,15.92
2019-03-05T09:50:37.151Z,16.00
2019-03-05T09:53:07.814Z,15.98
2019-03-05T09:55:38.403Z,16.13
2019-03-05T09:58:09.561Z,16.28
2019-03-05T10:00:40.345Z,16.40
2019-03-05T10:03:11.121Z,16.53
2019-03-05T10:05:41.737Z,16.69
2019-03-05T10:08:12.248Z,16.76
2019-03-05T10:10:42.831Z,16.84
2019-03-05T10:13:13.885Z,16.97
2019-03-05T10:15:44.470Z,17.04
2019-03-05T10:18:14.995Z,17.01
2019-03-05T10:20:46.129Z,17.02
2019-03-05T10:23:16.606Z,17.13
2019-03-05T10:25:47.290Z,17.24
2019-03-05T10:28:17.917Z,17.34
2019-03-05T10:30:48.497Z,17.04
2019-03-05T10:33:19.569Z,17.51
2019-03-05T10:35:50.327Z,17.58
2019-03-05T10:38:21.037Z,17.73
2019-03-05T10:40:52.555Z,17.81
2019-03-05T10:43:23.245Z,17.97
2019-03-05T10:45:54.172Z,18.04
2019-03-05T10:48:25.345Z,18.04
2019-03-05T10:50:56.174Z,18.22
2019-03-05T10:53:27.090Z,17.22
2019-03-05T10:55:57.798Z,18.32
2019-03-05T10:58:33.820Z,18.38
2019-03-05T11:01:01.032Z,18.52
2019-03-05T11:03:31.932Z,18.50
2019-03-05T11:06:02.820Z,18.63
2019-03-05T11:08:33.278Z,18.65
2019-03-05T11:11:12.995Z,18.72
2019-03-05T11:13:36.267Z,18.78
2019-03-05T11:16:07.101Z,18.86
2019-03-05T11:18:38.560Z,18.92
2019-03-05T11:21:09.362Z,18.86
2019-03-05T11:23:39.949Z,18.99
2019-03-05T11:26:10.583Z,19.12
2019-03-05T11:28:41.053Z,19.06
2019-03-05T11:31:11.728Z,19.14
2019-03-05T11:33:42.237Z,19.26
2019-03-05T11:36:12.849Z,19.34
2019-03-05T11:38:43.512Z,19.32
2019-03-05T11:41:14.073Z,19.33
2019-03-05T11:43:44.684Z,19.44
2019-03-05T11:46:17.958Z,19.58
2019-03-05T11:48:48.467Z,19.67
2019-03-05T11:51:18.950Z,19.67
2019-03-05T11:53:49.487Z,19.61
2019-03-05T11:56:19.963Z,19.65
2019-03-05T11:58:50.429Z,19.65
2019-03-05T12:01:34.242Z,19.69
2019-03-05T12:04:04.719Z,19.69
2019-03-05T12:06:35.319Z,19.70
2019-03-05T12:09:07.749Z,19.74
2019-03-05T12:11:38.223Z,19.68
2019-03-05T12:14:08.746Z,19.83
2019-03-05T12:16:41.611Z,19.88
2019-03-05T12:19:11.844Z,19.92
2019-03-05T12:21:42.549Z,20.01
2019-03-05T12:24:13.091Z,20.04
2019-03-05T12:26:43.524Z,20.11
2019-03-05T12:29:14.006Z,20.19
2019-03-05T12:31:44.522Z,20.27
2019-03-05T12:34:15.484Z,20.35
2019-03-05T12:36:46.150Z,20.44
2019-03-05T12:39:19.317Z,20.50
2019-03-05T12:41:49.797Z,20.54
2019-03-05T12:44:20.304Z,20.55
2019-03-05T12:46:50.780Z,20.63
2019-03-05T12:49:21.285Z,20.71
2019-03-05T12:51:51.793Z,20.77
2019-03-05T12:54:22.264Z,20.81
2019-03-05T12:56:52.779Z,20.84
2019-03-05T12:59:23.241Z,20.83
2019-03-05T13:01:53.860Z,20.88
2019-03-05T13:04:24.405Z,20.86
2019-03-05T13:06:54.916Z,20.82
2019-03-05T13:09:25.503Z,20.77
2019-03-05T13:11:56.014Z,20.80
2019-03-05T13:14:26.555Z,20.87
2019-03-05T13:16:57.111Z,20.93
2019-03-05T13:19:27.683Z,21.01
2019-03-05T13:21:58.197Z,21.12
2019-03-05T13:24:29.687Z,21.20
2019-03-05T13:27:00.205Z,21.21
2019-03-05T13:29:30.704Z,20.62
2019-03-05T13:32:01.201Z,21.34
2019-03-05T13:34:31.742Z,21.44
2019-03-05T13:37:02.224Z,21.55
2019-03-05T13:39:32.921Z,21.63
2019-03-05T13:42:03.476Z,21.72
2019-03-05T13:44:35.528Z,21.75
2019-03-05T13:47:08.362Z,21.79
2019-03-05T13:50:25.402Z,21.80
2019-03-05T13:53:14.567Z,21.66
2019-03-05T13:56:05.043Z,21.54
2019-03-05T13:59:18.288Z,21.57
2019-03-05T14:01:48.776Z,21.45
2019-03-05T14:04:25.775Z,21.32
2019-03-05T14:07:10.661Z,21.16
2019-03-05T14:09:39.170Z,21.16
2019-03-05T14:12:09.690Z,21.24
2019-03-05T14:14:40.182Z,21.13
2019-03-05T14:17:17.899Z,21.15
2019-03-05T14:19:48.502Z,21.20
2019-03-05T14:22:18.948Z,21.08
2019-03-05T14:24:58.286Z,21.08
2019-03-05T14:27:21.854Z,20.25
2019-03-05T14:29:52.483Z,20.90
2019-03-05T14:32:23.214Z,20.90
2019-03-05T14:35:06.511Z,20.96
2019-03-05T14:37:37.101Z,21.06
2019-03-05T14:40:23.386Z,21.05
2019-03-05T14:42:43.014Z,21.00
2019-03-05T14:45:18.415Z,21.01
2019-03-05T14:47:49.104Z,21.07
2019-03-05T14:50:19.724Z,21.15
2019-03-05T14:52:50.397Z,21.18
2019-03-05T14:55:20.932Z,21.18
2019-03-05T14:57:51.694Z,21.07
2019-03-05T15:00:22.658Z,21.01
2019-03-05T15:02:53.336Z,21.00
2019-03-05T15:05:23.901Z,20.93
2019-03-05T15:07:54.531Z,20.87
2019-03-05T15:10:25.141Z,20.81
2019-03-05T15:12:55.940Z,20.70
2019-03-05T15:15:28.297Z,20.60
2019-03-05T15:17:58.890Z,20.54
2019-03-05T15:20:29.378Z,20.45
2019-03-05T15:23:00.037Z,20.44
2019-03-05T15:25:30.590Z,20.39
2019-03-05T15:28:01.167Z,20.34
2019-03-05T15:30:31.897Z,20.28
2019-03-05T15:33:03.945Z,20.22
2019-03-05T15:35:34.687Z,20.19
2019-03-05T15:38:05.352Z,20.15
2019-03-05T15:40:35.900Z,20.07
2019-03-05T15:43:06.454Z,20.00
2019-03-05T15:45:36.954Z,19.94
2019-03-05T15:48:07.707Z,19.87
2019-03-05T15:50:38.245Z,19.77
2019-03-05T15:53:08.706Z,19.72
2019-03-05T15:55:39.166Z,19.61
2019-03-05T15:58:09.730Z,19.51
2019-03-05T16:00:40.633Z,19.43
2019-03-05T16:03:11.105Z,19.39
2019-03-05T16:05:41.808Z,19.34
2019-03-05T16:08:12.270Z,19.29
2019-03-05T16:10:42.769Z,19.21
2019-03-05T16:13:15.351Z,19.14
2019-03-05T16:15:46.893Z,19.06
2019-03-05T16:18:17.406Z,18.96
2019-03-05T16:20:47.886Z,18.90
2019-03-05T16:23:18.397Z,18.87
2019-03-05T16:25:50.363Z,18.79
2019-03-05T16:28:21.628Z,18.71
2019-03-05T16:31:21.714Z,18.64
2019-03-05T16:34:16.816Z,18.55
2019-03-05T16:37:14.880Z,18.43
2019-03-05T16:39:54.087Z,18.37
2019-03-05T16:42:34.895Z,18.29
2019-03-05T16:45:23.458Z,18.21
2019-03-05T16:48:12.797Z,18.15
2019-03-05T16:50:54.957Z,18.09
2019-03-05T16:53:52.789Z,18.00
2019-03-05T16:56:48.456Z,17.94
2019-03-05T16:59:43.658Z,17.82
2019-03-05T17:02:28.976Z,17.80
2019-03-05T17:05:36.613Z,17.78
2019-03-05T17:08:34.901Z,17.73
2019-03-05T17:11:33.228Z,17.64
2019-03-05T17:14:03.980Z,17.78
2019-03-05T17:16:35.033Z,17.81
2019-03-05T17:19:05.498Z,17.85
2019-03-05T17:21:36.105Z,17.82
2019-03-05T17:24:06.968Z,17.79
2019-03-05T17:26:37.679Z,17.79
2019-03-05T17:29:08.182Z,17.73
2019-03-05T17:31:38.789Z,17.67
2019-03-05T17:34:09.249Z,17.59
2019-03-05T17:36:40.014Z,17.62
2019-03-05T17:39:17.813Z,17.58
2019-03-05T17:41:48.545Z,17.55
2019-03-05T17:44:19.130Z,17.50
2019-03-05T17:46:49.951Z,17.37
2019-03-05T17:49:20.518Z,17.36
2019-03-05T17:51:51.053Z,17.31
2019-03-05T17:54:21.671Z,17.29
2019-03-05T17:56:52.461Z,17.26
2019-03-05T17:59:22.996Z,17.21
2019-03-05T18:01:53.491Z,17.20
2019-03-05T18:04:23.957Z,17.17
2019-03-05T18:06:54.452Z,17.06
2019-03-05T18:09:25.019Z,17.02
2019-03-05T18:11:55.638Z,16.97
2019-03-05T18:14:26.111Z,17.00
2019-03-05T18:16:56.717Z,16.99
2019-03-05T18:19:27.405Z,16.97
2019-03-05T18:21:57.887Z,16.96
2019-03-05T18:24:28.493Z,16.95
2019-03-05T18:26:58.945Z,16.81
2019-03-05T18:29:29.440Z,16.84
2019-03-05T18:31:59.954Z,16.66
2019-03-05T18:34:30.410Z,16.67
2019-03-05T18:37:00.870Z,16.53
2019-03-05T18:39:31.364Z,16.51
2019-03-05T18:42:01.909Z,16.45
2019-03-05T18:44:32.429Z,16.39
2019-03-05T18:47:02.899Z,16.27
2019-03-05T18:49:33.360Z,16.21
2019-03-05T18:52:03.860Z,16.16
2019-03-05T18:54:34.313Z,16.03
2019-03-05T18:57:04.767Z,16.03
2019-03-05T18:59:35.272Z,15.92
2019-03-05T19:02:05.939Z,15.81
2019-03-05T19:04:36.433Z,15.72
2019-03-05T19:07:06.933Z,15.70
2019-03-05T19:09:37.430Z,15.61
2019-03-05T19:12:08.017Z,15.60
2019-03-05T19:14:38.653Z,15.55
2019-03-05T19:17:09.250Z,15.47
2019-03-05T19:19:39.759Z,15.48
2019-03-05T19:22:10.275Z,15.52
2019-03-05T19:24:40.744Z,15.46
2019-03-05T19:27:11.261Z,15.41
2019-03-05T19:29:41.828Z,15.44
2019-03-05T19:32:12.444Z,15.46
2019-03-05T19:34:43.011Z,15.43
2019-03-05T19:37:14.000Z,15.34
2019-03-05T19:39:44.465Z,15.30
2019-03-05T19:42:15.021Z,15.30
2019-03-05T19:44:45.494Z,15.28
2019-03-05T19:47:16.002Z,15.25
2019-03-05T19:49:46.467Z,15.23
2019-03-05T19:52:16.963Z,15.17
2019-03-05T19:54:47.433Z,15.13
2019-03-05T19:57:17.910Z,15.22
2019-03-05T19:59:48.500Z,15.26
2019-03-05T20:02:18.971Z,15.28
2019-03-05T20:04:49.446Z,15.29
2019-03-05T20:07:19.982Z,15.30
2019-03-05T20:09:50.537Z,15.31
2019-03-05T20:12:21.012Z,15.30
2019-03-05T20:14:51.522Z,15.30
2019-03-05T20:17:22.029Z,15.29
2019-03-05T20:19:52.571Z,15.30
2019-03-05T20:22:23.035Z,15.30
2019-03-05T20:24:53.501Z,15.29
2019-03-05T20:27:24.010Z,15.25
2019-03-05T20:29:54.460Z,15.24
2019-03-05T20:32:25.346Z,15.26
2019-03-05T20:34:55.852Z,15.23
2019-03-05T20:37:26.357Z,15.23
2019-03-05T20:39:56.912Z,15.21
2019-03-05T20:42:27.415Z,15.21
2019-03-05T20:44:57.926Z,15.21
2019-03-05T20:47:28.386Z,15.21
2019-03-05T20:49:58.889Z,15.19
2019-03-05T20:52:29.352Z,15.16
2019-03-05T20:54:59.873Z,15.15
2019-03-05T20:57:30.518Z,15.14
2019-03-05T21:00:00.988Z,15.12
2019-03-05T21:02:31.501Z,15.09
2019-03-05T21:05:01.970Z,15.07
2019-03-05T21:07:32.758Z,15.05
2019-03-05T21:10:03.373Z,14.99
2019-03-05T21:12:33.854Z,14.95
2019-03-05T21:15:04.431Z,14.95
2019-03-05T21:17:35.141Z,14.95
2019-03-05T21:20:06.076Z,14.96
2019-03-05T21:22:36.537Z,14.96
2019-03-05T21:25:07.941Z,14.94
2019-03-05T21:27:38.407Z,14.96
2019-03-05T21:30:11.948Z,14.97
2019-03-05T21:32:42.409Z,14.97
2019-03-05T21:35:13.249Z,14.96
2019-03-05T21:37:43.994Z,14.94
2019-03-05T21:40:19.532Z,14.92
2019-03-05T21:42:50.097Z,14.90
2019-03-05T21:45:29.386Z,14.88
2019-03-05T21:47:59.849Z,14.86
2019-03-05T21:50:30.577Z,14.84
2019-03-05T21:53:01.183Z,14.81
2019-03-05T21:55:31.636Z,14.78
2019-03-05T21:58:02.123Z,14.71
2019-03-05T22:00:32.918Z,14.70
2019-03-05T22:03:03.598Z,14.66
2019-03-05T22:05:34.304Z,14.60
2019-03-05T22:08:04.792Z,14.56
2019-03-05T22:10:35.673Z,14.50
2019-03-05T22:13:06.238Z,14.47
2019-03-05T22:15:37.271Z,14.44
2019-03-05T22:18:07.817Z,14.38
2019-03-05T22:20:38.406Z,14.37
2019-03-05T22:23:08.865Z,14.35
2019-03-05T22:25:39.322Z,14.32
2019-03-05T22:28:09.844Z,14.29
2019-03-05T22:30:40.422Z,14.26
2019-03-05T22:33:11.195Z,14.19
2019-03-05T22:35:41.701Z,14.17
2019-03-05T22:38:12.260Z,14.15
2019-03-05T22:40:42.732Z,14.12
2019-03-05T22:43:13.242Z,14.10
2019-03-05T22:45:43.742Z,14.08
2019-03-05T22:48:14.241Z,13.32
2019-03-05T22:50:44.698Z,14.06
2019-03-05T22:53:15.205Z,14.00
2019-03-05T22:55:45.878Z,14.01
2019-03-05T22:58:16.342Z,13.98
2019-03-05T23:01:18.722Z,13.90
2019-03-05T23:03:57.539Z,13.88
2019-03-05T23:06:28.506Z,13.86
2019-03-05T23:08:59.106Z,13.77
2019-03-05T23:11:30.116Z,13.72
2019-03-05T23:14:00.716Z,13.75
2019-03-05T23:16:31.435Z,13.73
2019-03-05T23:19:02.080Z,13.74
2019-03-05T23:21:32.662Z,13.78
2019-03-05T23:24:03.165Z,13.79
2019-03-05T23:26:33.821Z,13.81
2019-03-05T23:29:05.932Z,13.84
2019-03-05T23:31:36.489Z,13.82
2019-03-05T23:34:07.040Z,13.78
2019-03-05T23:36:37.644Z,13.84
2019-03-05T23:39:09.781Z,13.70
2019-03-05T23:41:40.277Z,13.75
2019-03-05T23:44:10.887Z,13.76
2019-03-05T23:46:41.393Z,13.80
2019-03-05T23:49:12.008Z,12.74
2019-03-05T23:51:42.488Z,13.53
2019-03-05T23:54:12.978Z,13.53
2019-03-05T23:56:43.491Z,13.39
2019-03-05T23:59:13.944Z,13.28
